Nearby METAR Reports

 

KCRE - North Myrtle Bea, South Carolina, USA
Distance from station: SW 11mi, 18km
Updated: 11/18/2018 1:53pm
Overcast
Overcast
 Wind from SE
Wind: SE 6 mph , 9 km/h
Temperature: 64°F , 18°C
Dew Point: 55°F , 13°C
Humidity: 73%
Barometer: 30.21 inHg , 1023 hPa
Clouds: Overcast
Visibility: 10 miles , 16 km
Cloud details: Mostly cloudy 6000 ft
Overcast 7500 ft
2018/11/18 18:53 KCRE 181853Z 13005KT 10SM BKN060 OVC075 18/13 A3021 RMK AO1 SLP231 T01830133
KCPC - Whiteville, North Carolina, USA
Distance from station: NNW 26mi, 42km
Updated: 11/18/2018 1:40pm
Mostly cloudy
Mostly cloudy
 Wind from calm
Wind: Calm
Temperature: 64°F , 18°C
Dew Point: 48°F , 9°C
Humidity: 56%
Barometer: 30.22 inHg , 1023.4 hPa
Clouds: Mostly cloudy
Visibility: 10 miles , 16 km
Cloud details: Mostly cloudy 6000 ft
2018/11/18 18:40 KCPC 181840Z AUTO 00000KT 10SM BKN060 18/09 A3022 RMK AO2 T01800093
 
KMYR - Myrtle Beach, South Carolina, USA
Distance from station: SW 27mi, 43km
Updated: 11/18/2018 1:56pm
Overcast
Overcast
 Wind from ENE
Wind: ENE 6 mph , 9 km/h
Temperature: 63°F , 17°C
Dew Point: 55°F , 13°C
Humidity: 77%
Barometer: 30.23 inHg , 1023.7 hPa
Clouds: Overcast
Visibility: 10 miles , 16 km
Cloud details: Mostly cloudy 6000 ft
Overcast 8500 ft
2018/11/18 18:56 KMYR 181856Z 07005KT 10SM BKN060 OVC085 17/13 A3023 RMK AO2 SLP238 T01720133
KSUT - Southport, North Carolina, USA
Distance from station: E 28mi, 45km
Updated: 11/18/2018 1:40pm
Clear
Clear
 Wind from NE
Wind: NE 9 mph , 15 km/h
Temperature: 64°F , 18°C
Dew Point: 54°F , 12°C
Humidity: 68%
Barometer: 30.22 inHg , 1023.4 hPa
Clouds: Clear
Visibility: 10 miles , 16 km
2018/11/18 18:40 KSUT 181840Z AUTO 05008KT 10SM CLR 18/12 A3022 RMK AO2 T01790118
 
KHYW - Conway-Horry Cty, South Carolina, USA
Distance from station: WSW 32mi, 52km
Updated: 11/18/2018 1:35pm
Overcast
Overcast
 Wind from calm
Wind: Calm
Temperature: 64°F , 18°C
Dew Point: 55°F , 13°C
Humidity: 73%
Barometer: 30.22 inHg , 1023.4 hPa
Clouds: Overcast
Visibility: 7 miles , 11 km
Cloud details: Mostly cloudy 5500 ft
Mostly cloudy 7000 ft
Overcast 8500 ft
2018/11/18 18:35 KHYW 181835Z AUTO 00000KT 7SM BKN055 BKN070 OVC085 18/13 A3022 RMK AO2 TSNO
KILM - Wilmington, North Carolina, USA
Distance from station: ENE 45mi, 72km
Updated: 11/18/2018 1:53pm
Clear
Clear
 Wind from calm
Wind: Calm
Temperature: 64°F , 18°C
Dew Point: 50°F , 10°C
Humidity: 60%
Barometer: 30.23 inHg , 1023.7 hPa
Clouds: Clear
Visibility: 10 miles , 16 km
2018/11/18 18:53 KILM 181853Z 00000KT 10SM CLR 18/10 A3023 RMK AO2 SLP236 T01780100
 
KEYF - Elizabethtown, North Carolina, USA
Distance from station: N 47mi, 75km
Updated: 11/18/2018 1:40pm
Partly cloudy
Partly cloudy
 Wind from ESE
Wind: ESE 3 mph , 6 km/h
Temperature: 63°F , 17°C
Dew Point: 48°F , 9°C
Humidity: 59%
Barometer: 30.24 inHg , 1024 hPa
Clouds: Partly cloudy
Visibility: 10 miles , 16 km
Cloud details: Partly cloudy 7000 ft
2018/11/18 18:40 KEYF 181840Z AUTO 12003KT 10SM SCT070 17/09 A3024 RMK AO2 T01730091
KMAO - Marion, South Carolina, USA
Distance from station: WNW 47mi, 76km
Updated: 11/18/2018 1:55pm
Mostly cloudy
Mostly cloudy
 Wind from calm
Wind: Calm
Temperature: 63°F , 17°C
Dew Point: 50°F , 10°C
Humidity: 64%
Barometer: 30.23 inHg , 1023.7 hPa
Clouds: Mostly cloudy
Visibility: 10 miles , 16 km
Cloud details: Partly cloudy 4300 ft
Mostly cloudy 5000 ft
Mostly cloudy 8000 ft
2018/11/18 18:55 KMAO 181855Z AUTO 00000KT 10SM SCT043 BKN050 BKN080 17/10 A3023 RMK AO2
 
KLBT - Lumberton, North Carolina, USA
Distance from station: NNW 55mi, 88km
Updated: 11/18/2018 1:54pm
Mostly cloudy
Mostly cloudy
 Wind from N
Wind: N 5 mph , 7 km/h
Temperature: 64°F , 18°C
Dew Point: 46°F , 8°C
Humidity: 52%
Barometer: 30.23 inHg , 1023.7 hPa
Clouds: Mostly cloudy
Visibility: 10 miles , 16 km
Cloud details: Mostly cloudy 8000 ft
2018/11/18 18:54 KLBT 181854Z AUTO 35004KT 10SM BKN080 18/08 A3023 RMK AO2 SLP237 T01780083
KGGE - Georgetown, South Carolina, USA
Distance from station: SW 60mi, 97km
Updated: 11/18/2018 1:55pm
Overcast
Overcast
 Wind from NE
Wind: NE 7 mph , 11 km/h
Temperature: 63°F , 17°C
Dew Point: 59°F , 15°C
Humidity: 88%
Barometer: 30.22 inHg , 1023.4 hPa
Clouds: Overcast
Visibility: 10 miles , 16 km
Cloud details: Mostly cloudy 1200 ft
Overcast 6000 ft
2018/11/18 18:55 KGGE 181855Z AUTO 05006KT 10SM BKN012 OVC060 17/15 A3022 RMK AO2
 
KFLO - Florence, South Carolina, USA
Distance from station: WNW 69mi, 111km
Updated: 11/18/2018 1:53pm
Overcast
Overcast
 Wind from calm
Wind: Calm
Temperature: 63°F , 17°C
Dew Point: 48°F , 9°C
Humidity: 59%
Barometer: 30.23 inHg , 1023.7 hPa
Clouds: Overcast
Visibility: 10 miles , 16 km
Cloud details: Mostly cloudy 4200 ft
Overcast 5500 ft
2018/11/18 18:53 KFLO 181853Z 00000KT 10SM BKN042 OVC055 17/09 A3023 RMK AO2 SLP236 T01670094
KCTZ - Clinton, North Carolina, USA
Distance from station: N 74mi, 119km
Updated: 11/18/2018 1:40pm
Partly cloudy
Partly cloudy
 Wind from calm
Wind: Calm
Temperature: 63°F , 17°C
Dew Point: 45°F , 7°C
Humidity: 52%
Barometer: 30.25 inHg , 1024.4 hPa
Clouds: Partly cloudy
Visibility: 10 miles , 16 km
Cloud details: Partly cloudy 5500 ft
2018/11/18 18:40 KCTZ 181840Z AUTO 00000KT 10SM SCT055 17/07 A3025 RMK AO2 T01700072
 
KMEB - Maxton, North Carolina, USA
Distance from station: NW 75mi, 120km
Updated: 11/18/2018 1:52pm
Partly cloudy
Partly cloudy
 Wind from calm
Wind: Calm
Temperature: 61°F , 16°C
Dew Point: 46°F , 8°C
Humidity: 59%
Barometer: 30.24 inHg , 1024 hPa
Clouds: Partly cloudy
Visibility: 10 miles , 16 km
Cloud details: Partly cloudy 6000 ft
2018/11/18 18:52 KMEB 181852Z AUTO 00000KT 10SM SCT060 16/08 A3024 RMK AO2 SLP241 T01610078
KCKI - Kingstree, South Carolina, USA
Distance from station: W 75mi, 121km
Updated: 11/18/2018 1:55pm
Mostly cloudy
Mostly cloudy
 Wind from calm
Wind: Calm
Temperature: 61°F , 16°C
Dew Point: 54°F , 12°C
Humidity: 77%
Barometer: 30.22 inHg , 1023.4 hPa
Clouds: Mostly cloudy
Visibility: 10 miles , 16 km
Cloud details: Partly cloudy 5000 ft
Mostly cloudy 7500 ft
2018/11/18 18:55 KCKI 181855Z AUTO 00000KT 10SM SCT050 BKN075 16/12 A3022 RMK AO2
 
KFAY - Fayetteville, North Carolina, USA
Distance from station: NNW 75mi, 121km
Updated: 11/18/2018 1:53pm
Mostly cloudy
Mostly cloudy
 Wind from calm
Wind: Calm
Temperature: 63°F , 17°C
Dew Point: 41°F , 5°C
Humidity: 45%
Barometer: 30.24 inHg , 1024 hPa
Clouds: Mostly cloudy
Visibility: 10 miles , 16 km
Cloud details: Mostly cloudy 7000 ft
2018/11/18 18:53 KFAY 181853Z 00000KT 10SM BKN070 17/05 A3024 RMK AO2 SLP236 T01670050
KBBP - Marlboro Cnty, South Carolina, USA
Distance from station: NW 82mi, 132km
Updated: 11/18/2018 1:55pm
Mostly cloudy
Mostly cloudy
 Wind from calm
Wind: Calm
Temperature: 61°F , 16°C
Dew Point: 46°F , 8°C
Humidity: 59%
Barometer: 30.24 inHg , 1024 hPa
Clouds: Mostly cloudy
Visibility: 10 miles , 16 km
Cloud details: Partly cloudy 5000 ft
Partly cloudy 6000 ft
Mostly cloudy 7500 ft
2018/11/18 18:55 KBBP 181855Z AUTO 00000KT 10SM SCT050 SCT060 BKN075 16/08 A3024 RMK AO2
 
KDPL - Kenansville/Dupl, North Carolina, USA
Distance from station: NNE 82mi, 132km
Updated: 11/18/2018 7:15am
NOT Current
Fog, Overcast
Fog, Overcast
 Wind from calm
Wind: Calm
Temperature: 34°F , 1°C
Dew Point: 34°F , 1°C
Humidity: 100%
Barometer: 30.32 inHg , 1026.8 hPa
Summary: Fog
Clouds: Overcast
Visibility: 1/4 mile , 0.4 km
Cloud details: Overcast 200 ft
2018/11/18 12:15 KDPL 181215Z AUTO 00000KT 1/4SM FG OVC002 01/01 A3032 RMK AO2
KOAJ - Jacksonville, North Carolina, USA
Distance from station: NE 82mi, 132km
Updated: 11/18/2018 1:56pm
Clear
Clear
 Wind from calm
Wind: Calm
Temperature: 63°F , 17°C
Dew Point: 46°F , 8°C
Humidity: 56%
Barometer: 30.24 inHg , 1024 hPa
Clouds: Clear
Visibility: 10 miles , 16 km
2018/11/18 18:56 KOAJ 181856Z 00000KT 10SM CLR 17/08 A3024 RMK AO2 SLP247 T01720083
 
KUDG - Darlington Cnty, South Carolina, USA
Distance from station: WNW 83mi, 134km
Updated: 11/18/2018 1:56pm
Mostly cloudy
Mostly cloudy
 Wind from calm
Wind: Calm
Temperature: 61°F , 16°C
Dew Point: 46°F , 8°C
Humidity: 59%
Barometer: 30.24 inHg , 1024 hPa
Clouds: Mostly cloudy
Visibility: 10 miles , 16 km
Cloud details: Few Clouds 5500 ft
Mostly cloudy 7000 ft
2018/11/18 18:56 KUDG 181856Z AUTO 00000KT 10SM FEW055 BKN070 16/08 A3024 RMK AO2 SLP249 T01610083
KNCA - New River Mcas, North Carolina, USA
Distance from station: NE 84mi, 135km
Updated: 11/18/2018 1:56pm
Clear
Clear
 Wind from calm
Wind: Calm
Temperature: 64°F , 18°C
Dew Point: 52°F , 11°C
Humidity: 64%
Barometer: 30.23 inHg , 1023.7 hPa
Clouds: Clear
Visibility: 10 miles , 16 km
2018/11/18 18:56 KNCA 181856Z AUTO 00000KT 10SM CLR 18/11 A3023 RMK AO2 SLP239 T01780111